Temperatura - Umidità - Pioggia orarie del 28-01-2020

Intensità - Direzione vento orarie del 28-01-2020

Dati orari da stazione meteo del 28-01-2020

Nome Stazione Data Ora Temperatura [°C] Umidità [%] Pioggia [mm] Intensità vento[km/h] Direzione vento [°]
Savigliano 27-01-2020 01:00 1.8 88.3 0 0.4 199
Savigliano 27-01-2020 02:00 -0.5 88.3 0 0.4 150
Savigliano 27-01-2020 03:00 -1 88.6 0 2.2 169
Savigliano 27-01-2020 04:00 -0.6 87.9 0 1.1 181
Savigliano 27-01-2020 05:00 -0.6 88.5 0 0.7 151
Savigliano 27-01-2020 06:00 -0.6 88.8 0 0.4 154
Savigliano 27-01-2020 07:00 -1.4 89.1 0 1.4 156
Savigliano 27-01-2020 08:00 -0.7 89.1 0 1.4 179
Savigliano 27-01-2020 09:00 -0.7 88.8 0 0.4 185
Savigliano 27-01-2020 10:00 2.1 84.8 0 0 158
Savigliano 27-01-2020 11:00 3.7 81.4 0 1.1 118
Savigliano 27-01-2020 12:00 4.6 78.6 0 1.1 89
Savigliano 27-01-2020 13:00 6.9 73.8 0 1.1 68
Savigliano 27-01-2020 14:00 7.1 72.5 0 0.7 170
Savigliano 27-01-2020 15:00 6.8 73.2 0 0.4 330
Savigliano 27-01-2020 16:00 6.7 77.5 0 0.4 316
Savigliano 27-01-2020 17:00 7.2 79.1 0 0.4 332
Savigliano 27-01-2020 18:00 7 79.8 0 0.4 322
Savigliano 27-01-2020 19:00 6.7 80.4 0 0.4 304
Savigliano 27-01-2020 20:00 5.3 79.1 0 1.4 294
Savigliano 27-01-2020 21:00 5.6 79.1 0 1.1 284
Savigliano 27-01-2020 22:00 5 79.5 0 0.7 237
Savigliano 27-01-2020 23:00 4.7 79.5 0 0 198
Savigliano 28-01-2020 00:00 4.5 83.7 0 0.4 198
Savigliano 28-01-2020 01:00 4.3 84.5 0 0.4 168
Savigliano 28-01-2020 02:00 4.2 88.5 0 0 152
Savigliano 28-01-2020 03:00 4.5 85.9 0 0.4 208
Savigliano 28-01-2020 04:00 3.7 89.1 0 0.7 157
Savigliano 28-01-2020 05:00 4.5 84.3 0 0 220
Savigliano 28-01-2020 06:00 2.7 87.1 0 1.1 149
Savigliano 28-01-2020 07:00 3.4 90.1 0 0.4 260
Savigliano 28-01-2020 08:00 4.1 84.1 0 0.4 290
Savigliano 28-01-2020 09:00 4.2 84.4 0 0.7 275
Savigliano 28-01-2020 10:00 4.6 84 0 1.1 208
Savigliano 28-01-2020 11:00 5.1 83.3 0 1.8 158
Savigliano 28-01-2020 12:00 6.9 78.1 0 4 168
Savigliano 28-01-2020 13:00 8 73 0 5.8 151
Savigliano 28-01-2020 14:00 9.5 69 0 2.2 214
Savigliano 28-01-2020 15:00 10.6 65.2 0 1.8 73
Savigliano 28-01-2020 16:00 13 55.2 0 1.1 195
Savigliano 28-01-2020 17:00 13.4 47.6 0 1.1 264
Savigliano 28-01-2020 18:00 10.2 56.3 0 0.4 223
Savigliano 28-01-2020 19:00 8.7 61.4 0 0.4 263
Savigliano 28-01-2020 20:00 6.2 72.1 0 3.2 125

Riassuntivo giornaliero del 28-01-2020